createdAt,value
2022-12-04T00:01:18.710Z,18.13
2022-12-04T00:03:45.773Z,17.33
2022-12-04T00:06:18.433Z,17.40
2022-12-04T00:08:46.591Z,17.63
2022-12-04T00:11:16.608Z,18.65
2022-12-04T00:13:43.756Z,18.48
2022-12-04T00:16:17.006Z,18.00
2022-12-04T00:18:43.971Z,17.48
2022-12-04T00:21:12.737Z,17.60
2022-12-04T00:23:40.303Z,18.17
2022-12-04T00:26:16.818Z,19.10
2022-12-04T00:28:44.187Z,18.30
2022-12-04T00:31:16.208Z,18.50
2022-12-04T00:33:44.212Z,18.00
2022-12-04T00:36:13.987Z,18.33
2022-12-04T00:38:42.667Z,18.35
2022-12-04T00:41:11.361Z,18.35
2022-12-04T00:43:38.601Z,18.40
2022-12-04T00:46:05.646Z,17.50
2022-12-04T00:48:32.508Z,18.95
2022-12-04T00:51:06.969Z,18.33
2022-12-04T00:53:33.999Z,19.55
2022-12-04T00:56:05.467Z,19.63
2022-12-04T00:58:32.226Z,17.75
2022-12-04T01:01:06.966Z,17.65
2022-12-04T01:03:34.764Z,18.35
2022-12-04T01:06:02.521Z,17.85
2022-12-04T01:08:29.487Z,19.17
2022-12-04T01:10:56.277Z,19.02
2022-12-04T01:13:23.640Z,19.30
2022-12-04T01:15:50.952Z,19.70
2022-12-04T01:18:18.751Z,18.20
2022-12-04T01:20:50.588Z,19.20
2022-12-04T01:23:19.139Z,18.98
2022-12-04T01:25:54.080Z,20.10
2022-12-04T01:28:21.541Z,19.35
2022-12-04T01:31:08.327Z,20.17
2022-12-04T01:33:37.203Z,19.60
2022-12-04T01:36:10.332Z,19.02
2022-12-04T01:38:38.288Z,19.17
2022-12-04T01:41:06.148Z,20.02
2022-12-04T01:43:35.341Z,19.10
2022-12-04T01:46:03.246Z,19.77
2022-12-04T01:48:36.084Z,19.45
2022-12-04T01:51:30.578Z,19.20
2022-12-04T01:54:05.104Z,18.25
2022-12-04T01:56:54.358Z,19.23
2022-12-04T01:59:26.761Z,18.88
2022-12-04T02:02:02.959Z,19.27
2022-12-04T02:04:31.409Z,19.45
2022-12-04T02:06:58.415Z,19.58
2022-12-04T02:09:27.369Z,19.58
2022-12-04T02:12:23.146Z,20.30
2022-12-04T02:15:10.697Z,19.42
2022-12-04T02:18:08.287Z,18.83
2022-12-04T02:20:59.409Z,19.10
2022-12-04T02:23:49.445Z,20.00
2022-12-04T02:26:29.889Z,18.77
2022-12-04T02:29:07.391Z,18.30
2022-12-04T02:31:43.451Z,19.55
2022-12-04T02:34:27.769Z,19.77
2022-12-04T02:37:06.665Z,18.58
2022-12-04T02:39:33.773Z,20.65
2022-12-04T02:42:07.142Z,19.92
2022-12-04T02:44:49.579Z,20.00
2022-12-04T02:47:21.896Z,19.95
2022-12-04T02:49:57.894Z,18.98
2022-12-04T02:52:34.771Z,18.95
2022-12-04T02:55:17.027Z,19.50
2022-12-04T02:57:50.651Z,19.38
2022-12-04T03:00:18.329Z,20.15
2022-12-04T03:02:48.205Z,20.52
2022-12-04T03:05:18.543Z,19.15
2022-12-04T03:07:55.556Z,18.98
2022-12-04T03:10:31.524Z,19.63
2022-12-04T03:13:18.531Z,19.67
2022-12-04T03:15:53.359Z,20.38
2022-12-04T03:18:28.425Z,19.90
2022-12-04T03:21:06.087Z,19.83
2022-12-04T03:23:39.851Z,20.23
2022-12-04T03:26:26.905Z,19.65
2022-12-04T03:29:00.595Z,20.23
2022-12-04T03:31:42.682Z,19.60
2022-12-04T03:34:12.734Z,20.50
2022-12-04T03:37:10.420Z,20.38
2022-12-04T03:40:04.364Z,19.13
2022-12-04T03:42:39.251Z,20.42
2022-12-04T03:45:15.428Z,19.52
2022-12-04T03:47:51.579Z,20.65
2022-12-04T03:50:30.840Z,20.05
2022-12-04T03:53:08.048Z,20.30
2022-12-04T03:55:44.837Z,20.70
2022-12-04T03:58:19.866Z,19.63
2022-12-04T04:00:49.161Z,18.88
2022-12-04T04:03:24.552Z,20.42
2022-12-04T04:05:55.541Z,20.95
2022-12-04T04:08:28.074Z,19.70
2022-12-04T04:11:23.473Z,21.35
2022-12-04T04:14:21.178Z,19.80
2022-12-04T04:17:11.936Z,19.77
2022-12-04T04:19:58.601Z,21.40
2022-12-04T04:22:45.916Z,19.65
2022-12-04T04:25:16.759Z,19.58
2022-12-04T04:27:50.959Z,19.17
2022-12-04T04:30:17.869Z,20.70
2022-12-04T04:33:06.124Z,20.75
2022-12-04T04:35:46.204Z,19.45
2022-12-04T04:38:31.692Z,20.30
2022-12-04T04:41:01.144Z,20.45
2022-12-04T04:43:44.321Z,19.92
2022-12-04T04:46:17.200Z,19.92
2022-12-04T04:48:52.148Z,19.88
2022-12-04T04:51:20.396Z,20.92
2022-12-04T04:53:51.008Z,20.45
2022-12-04T04:56:18.519Z,19.33
2022-12-04T04:58:45.458Z,20.95
2022-12-04T05:01:15.983Z,19.90
2022-12-04T05:03:43.117Z,19.75
2022-12-04T05:06:10.169Z,19.75
2022-12-04T05:08:37.574Z,20.05
2022-12-04T05:11:05.724Z,20.17
2022-12-04T05:13:33.440Z,20.27
2022-12-04T05:16:05.785Z,19.77
2022-12-04T05:18:34.579Z,21.02
2022-12-04T05:21:16.564Z,19.35
2022-12-04T05:23:43.534Z,19.83
2022-12-04T05:26:10.803Z,21.23
2022-12-04T05:28:37.908Z,20.02
2022-12-04T05:31:04.877Z,20.98
2022-12-04T05:33:31.747Z,19.95
2022-12-04T05:36:00.845Z,20.10
2022-12-04T05:38:27.903Z,19.40
2022-12-04T05:40:54.789Z,20.05
2022-12-04T05:43:21.665Z,20.85
2022-12-04T05:45:48.490Z,21.52
2022-12-04T05:48:15.499Z,20.23
2022-12-04T05:50:42.295Z,20.70
2022-12-04T05:53:09.545Z,21.08
2022-12-04T05:55:36.514Z,20.88
2022-12-04T05:58:03.880Z,21.00
2022-12-04T06:00:30.882Z,20.15
2022-12-04T06:02:57.811Z,21.48
2022-12-04T06:05:24.605Z,20.70
2022-12-04T06:07:51.610Z,21.25
2022-12-04T06:10:18.551Z,19.98
2022-12-04T06:12:45.420Z,20.60
2022-12-04T06:15:12.337Z,21.48
2022-12-04T06:17:39.077Z,20.50
2022-12-04T06:20:11.249Z,20.15
2022-12-04T06:22:38.896Z,20.75
2022-12-04T06:25:07.051Z,21.42
2022-12-04T06:27:34.105Z,19.58
2022-12-04T06:30:00.961Z,20.92
2022-12-04T06:32:28.010Z,21.02
2022-12-04T06:34:55.172Z,20.95
2022-12-04T06:37:24.049Z,20.15
2022-12-04T06:39:50.996Z,19.58
2022-12-04T06:42:17.995Z,19.90
2022-12-04T06:44:44.855Z,19.90
2022-12-04T06:47:11.719Z,20.83
2022-12-04T06:49:38.662Z,20.98
2022-12-04T06:52:05.409Z,19.42
2022-12-04T06:54:32.213Z,20.90
2022-12-04T06:56:58.983Z,20.45
2022-12-04T06:59:26.064Z,20.45
2022-12-04T07:01:52.949Z,19.90
2022-12-04T07:04:20.105Z,20.17
2022-12-04T07:06:47.090Z,19.60
2022-12-04T07:09:16.946Z,20.25
2022-12-04T07:11:44.780Z,19.00
2022-12-04T07:14:12.986Z,18.73
2022-12-04T07:16:41.973Z,19.95
2022-12-04T07:19:13.720Z,20.55
2022-12-04T07:21:41.172Z,19.52
2022-12-04T07:24:13.256Z,19.48
2022-12-04T07:26:39.998Z,20.00
2022-12-04T07:29:06.748Z,19.65
2022-12-04T07:31:33.602Z,19.70
2022-12-04T07:34:00.360Z,19.15
2022-12-04T07:36:27.720Z,20.20
2022-12-04T07:38:57.899Z,18.67
2022-12-04T07:41:25.032Z,19.23
2022-12-04T07:43:51.815Z,19.00
2022-12-04T07:46:22.580Z,18.83
2022-12-04T07:48:49.451Z,19.25
2022-12-04T07:51:19.575Z,19.05
2022-12-04T07:53:47.385Z,20.52
2022-12-04T07:56:15.024Z,17.50
2022-12-04T07:58:42.516Z,19.10
2022-12-04T08:01:12.394Z,19.17
2022-12-04T08:03:46.845Z,19.25
2022-12-04T08:06:15.557Z,20.15
2022-12-04T08:08:42.380Z,19.35
2022-12-04T08:11:11.993Z,18.48
2022-12-04T08:13:39.484Z,18.08
2022-12-04T08:16:08.528Z,18.92
2022-12-04T08:18:35.616Z,19.00
2022-12-04T08:21:10.325Z,19.20
2022-12-04T08:23:37.968Z,19.92
2022-12-04T08:26:05.966Z,19.35
2022-12-04T08:28:33.948Z,19.75
2022-12-04T08:31:18.829Z,18.85
2022-12-04T08:33:47.026Z,18.98
2022-12-04T08:36:16.072Z,19.25
2022-12-04T08:38:43.641Z,19.23
2022-12-04T08:41:12.735Z,19.60
2022-12-04T08:43:39.942Z,19.08
2022-12-04T08:46:10.094Z,19.60
2022-12-04T08:48:37.603Z,19.65
2022-12-04T08:51:07.726Z,18.75
2022-12-04T08:53:36.586Z,18.75
2022-12-04T08:56:04.329Z,19.73
2022-12-04T08:58:31.384Z,18.95
2022-12-04T09:01:07.860Z,19.13
2022-12-04T09:03:35.432Z,20.05
2022-12-04T09:06:04.536Z,19.52
2022-12-04T09:08:32.105Z,19.77
2022-12-04T09:11:05.577Z,19.65
2022-12-04T09:13:32.633Z,20.70
2022-12-04T09:15:59.751Z,19.23
2022-12-04T09:18:26.595Z,19.40
2022-12-04T09:21:02.061Z,20.15
2022-12-04T09:23:29.193Z,18.88
2022-12-04T09:25:55.996Z,19.40
2022-12-04T09:28:22.910Z,19.35
2022-12-04T09:31:04.497Z,19.58
2022-12-04T09:33:32.661Z,19.48
2022-12-04T09:36:01.162Z,19.52
2022-12-04T09:38:29.085Z,19.38
2022-12-04T09:41:10.434Z,20.25
2022-12-04T09:43:49.439Z,20.25
2022-12-04T09:46:51.042Z,20.17
2022-12-04T09:49:39.969Z,18.95
2022-12-04T09:52:31.053Z,19.52
2022-12-04T09:55:00.392Z,19.38
2022-12-04T09:57:42.012Z,18.65
2022-12-04T10:00:14.448Z,17.60
2022-12-04T10:02:44.678Z,17.83
2022-12-04T10:05:38.726Z,17.38
2022-12-04T10:08:20.940Z,15.57
2022-12-04T10:10:53.876Z,17.10
2022-12-04T10:13:43.771Z,16.65
2022-12-04T10:16:26.871Z,17.02
2022-12-04T10:19:13.594Z,16.58
2022-12-04T10:22:09.023Z,17.48
2022-12-04T10:24:45.016Z,15.73
2022-12-04T10:27:34.650Z,16.20
2022-12-04T10:30:21.143Z,15.43
2022-12-04T10:32:51.311Z,15.77
2022-12-04T10:35:25.098Z,16.85
2022-12-04T10:37:58.395Z,16.05
2022-12-04T10:40:48.898Z,16.02
2022-12-04T10:43:38.561Z,15.82
2022-12-04T10:46:07.964Z,15.30
2022-12-04T10:48:38.350Z,16.08
2022-12-04T10:51:05.408Z,15.88
2022-12-04T10:53:36.061Z,14.98
2022-12-04T10:56:18.046Z,15.50
2022-12-04T10:59:05.541Z,14.98
2022-12-04T11:01:34.323Z,14.43
2022-12-04T11:04:07.666Z,14.95
2022-12-04T11:06:35.709Z,32.47
2022-12-04T11:09:03.798Z,67.15
2022-12-04T11:11:33.215Z,48.47
2022-12-04T11:14:17.928Z,19.63
2022-12-04T11:16:48.372Z,75.03
2022-12-04T11:19:29.600Z,58.42
2022-12-04T11:22:04.554Z,49.03
2022-12-04T11:24:36.701Z,15.65
2022-12-04T11:27:06.187Z,15.77
2022-12-04T11:29:37.232Z,18.30
2022-12-04T11:32:08.027Z,14.27
2022-12-04T11:34:40.316Z,13.55
2022-12-04T11:37:19.788Z,15.13
2022-12-04T11:39:47.385Z,13.90
2022-12-04T11:42:14.111Z,13.00
2022-12-04T11:44:50.818Z,12.80
2022-12-04T11:47:19.716Z,12.65
2022-12-04T11:50:20.981Z,12.13
2022-12-04T11:53:10.999Z,11.88
2022-12-04T11:56:33.765Z,12.38
2022-12-04T11:59:41.020Z,12.25
2022-12-04T12:02:43.366Z,12.38
2022-12-04T12:05:37.882Z,12.77
2022-12-04T12:08:21.079Z,12.77
2022-12-04T12:10:53.706Z,12.05
2022-12-04T12:13:32.208Z,12.38
2022-12-04T12:16:08.142Z,12.77
2022-12-04T12:18:44.266Z,11.40
2022-12-04T12:21:50.072Z,12.07
2022-12-04T12:24:34.855Z,11.80
2022-12-04T12:27:29.580Z,10.73
2022-12-04T12:30:11.501Z,11.68
2022-12-04T12:32:59.558Z,10.45
2022-12-04T12:35:40.054Z,11.55
2022-12-04T12:38:33.423Z,11.15
2022-12-04T12:41:29.770Z,10.90
2022-12-04T12:44:34.582Z,11.63
2022-12-04T12:47:09.156Z,10.98
2022-12-04T12:49:59.167Z,11.40
2022-12-04T12:52:38.074Z,11.32
2022-12-04T12:55:25.853Z,10.40
2022-12-04T12:58:06.350Z,11.20
2022-12-04T13:00:43.612Z,10.95
2022-12-04T13:03:43.020Z,11.48
2022-12-04T13:06:17.099Z,10.80
2022-12-04T13:08:54.339Z,11.05
2022-12-04T13:11:24.216Z,11.20
2022-12-04T13:13:57.157Z,10.98
2022-12-04T13:16:31.272Z,11.18
2022-12-04T13:19:18.160Z,11.73
2022-12-04T13:21:59.813Z,11.65
2022-12-04T13:24:53.059Z,10.88
2022-12-04T13:27:45.066Z,11.55
2022-12-04T13:30:31.589Z,10.93
2022-12-04T13:33:07.584Z,10.63
2022-12-04T13:36:04.328Z,11.90
2022-12-04T13:38:34.152Z,10.32
2022-12-04T13:41:05.667Z,11.35
2022-12-04T13:43:42.212Z,10.48
2022-12-04T13:46:30.495Z,11.10
2022-12-04T13:49:13.489Z,10.50
2022-12-04T13:51:42.127Z,10.68
2022-12-04T13:54:11.935Z,11.88
2022-12-04T13:57:10.960Z,11.60
2022-12-04T13:59:39.714Z,10.88
2022-12-04T14:02:35.387Z,11.13
2022-12-04T14:05:09.334Z,11.02
2022-12-04T14:07:39.371Z,10.65
2022-12-04T14:10:27.845Z,10.02
2022-12-04T14:13:06.413Z,10.98
2022-12-04T14:15:37.223Z,10.57
2022-12-04T14:18:13.376Z,11.20
2022-12-04T14:20:42.441Z,11.23
2022-12-04T14:23:22.549Z,10.20
2022-12-04T14:25:51.240Z,10.60
2022-12-04T14:28:41.649Z,10.25
2022-12-04T14:31:09.120Z,10.98
2022-12-04T14:33:52.335Z,10.55
2022-12-04T14:36:37.536Z,11.15
2022-12-04T14:39:16.917Z,11.05
2022-12-04T14:41:43.970Z,11.52
2022-12-04T14:44:28.951Z,10.88
2022-12-04T14:47:04.107Z,12.00
2022-12-04T14:49:38.719Z,12.25
2022-12-04T14:52:46.970Z,11.45
2022-12-04T14:55:19.235Z,11.82
2022-12-04T14:57:57.622Z,11.82
2022-12-04T15:00:24.856Z,11.77
2022-12-04T15:02:57.644Z,12.13
2022-12-04T15:05:29.981Z,13.00
2022-12-04T15:08:04.418Z,11.90
2022-12-04T15:10:52.460Z,11.98
2022-12-04T15:13:32.887Z,12.13
2022-12-04T15:16:11.158Z,12.60
2022-12-04T15:18:39.668Z,13.32
2022-12-04T15:21:10.380Z,12.18
2022-12-04T15:23:41.428Z,13.52
2022-12-04T15:26:12.030Z,13.95
2022-12-04T15:28:47.459Z,13.95
2022-12-04T15:31:35.131Z,14.77
2022-12-04T15:34:05.977Z,14.35
2022-12-04T15:37:09.245Z,13.05
2022-12-04T15:39:38.097Z,12.45
2022-12-04T15:42:15.748Z,14.05
2022-12-04T15:45:21.408Z,14.13
2022-12-04T15:47:48.219Z,13.38
2022-12-04T15:50:18.196Z,14.55
2022-12-04T15:53:16.305Z,13.85
2022-12-04T15:55:58.722Z,14.80
2022-12-04T15:58:34.260Z,14.63
2022-12-04T16:01:08.469Z,14.75
2022-12-04T16:03:38.270Z,15.27
2022-12-04T16:06:08.372Z,15.48
2022-12-04T16:08:40.902Z,16.02
2022-12-04T16:11:36.193Z,14.27
2022-12-04T16:14:05.771Z,16.65
2022-12-04T16:16:32.867Z,15.95
2022-12-04T16:19:03.958Z,16.85
2022-12-04T16:21:31.878Z,15.10
2022-12-04T16:24:06.640Z,17.25
2022-12-04T16:26:34.071Z,17.23
2022-12-04T16:29:00.923Z,17.17
2022-12-04T16:31:28.137Z,16.73
2022-12-04T16:33:55.076Z,16.42
2022-12-04T16:36:21.920Z,16.83
2022-12-04T16:38:50.433Z,17.83
2022-12-04T16:41:20.494Z,16.10
2022-12-04T16:43:55.873Z,16.45
2022-12-04T16:46:25.312Z,17.20
2022-12-04T16:48:52.768Z,17.33
2022-12-04T16:51:23.286Z,17.70
2022-12-04T16:53:51.904Z,17.25
2022-12-04T16:56:19.538Z,16.50
2022-12-04T16:58:46.705Z,17.20
2022-12-04T17:01:23.694Z,17.48
2022-12-04T17:03:51.062Z,16.42
2022-12-04T17:06:18.735Z,17.58
2022-12-04T17:08:45.618Z,17.13
2022-12-04T17:11:14.706Z,16.98
2022-12-04T17:13:42.140Z,16.23
2022-12-04T17:16:10.175Z,17.33
2022-12-04T17:18:38.929Z,17.40
2022-12-04T17:21:11.586Z,17.20
2022-12-04T17:23:39.146Z,17.10
2022-12-04T17:26:09.399Z,17.02
2022-12-04T17:28:39.263Z,17.20
2022-12-04T17:31:16.266Z,17.52
2022-12-04T17:33:43.974Z,17.17
2022-12-04T17:36:13.068Z,17.33
2022-12-04T17:38:40.964Z,17.85
2022-12-04T17:41:09.272Z,17.75
2022-12-04T17:43:36.843Z,17.27
2022-12-04T17:46:20.493Z,16.52
2022-12-04T17:48:47.930Z,17.33
2022-12-04T17:51:18.203Z,17.65
2022-12-04T17:53:45.798Z,16.63
2022-12-04T17:56:17.334Z,18.08
2022-12-04T17:58:45.243Z,16.95
2022-12-04T18:01:14.982Z,17.65
2022-12-04T18:03:43.364Z,17.60
2022-12-04T18:06:28.894Z,16.45
2022-12-04T18:08:56.644Z,16.55
2022-12-04T18:11:26.452Z,17.75
2022-12-04T18:13:59.167Z,17.30
2022-12-04T18:16:27.113Z,16.38
2022-12-04T18:18:58.314Z,17.73
2022-12-04T18:21:26.095Z,17.08
2022-12-04T18:23:55.762Z,17.65
2022-12-04T18:26:24.602Z,17.42
2022-12-04T18:28:51.657Z,17.52
2022-12-04T18:31:19.674Z,17.58
2022-12-04T18:33:47.178Z,17.50
2022-12-04T18:36:19.534Z,17.17
2022-12-04T18:38:47.132Z,15.25
2022-12-04T18:41:14.941Z,16.27
2022-12-04T18:43:44.253Z,16.45
2022-12-04T18:46:16.192Z,17.15
2022-12-04T18:48:44.812Z,16.73
2022-12-04T18:51:19.926Z,15.40
2022-12-04T18:53:47.814Z,15.50
2022-12-04T18:56:15.129Z,15.77
2022-12-04T18:58:42.773Z,15.95
2022-12-04T19:01:13.922Z,16.60
2022-12-04T19:03:42.168Z,16.05
2022-12-04T19:06:09.076Z,15.77
2022-12-04T19:08:41.432Z,15.27
2022-12-04T19:11:15.888Z,15.82
2022-12-04T19:13:43.036Z,15.02
2022-12-04T19:16:15.118Z,14.65
2022-12-04T19:18:45.064Z,15.32
2022-12-04T19:21:12.766Z,15.13
2022-12-04T19:23:39.684Z,16.30
2022-12-04T19:26:06.811Z,16.13
2022-12-04T19:28:33.731Z,15.85
2022-12-04T19:31:00.573Z,15.90
2022-12-04T19:33:28.099Z,15.25
2022-12-04T19:36:03.331Z,15.95
2022-12-04T19:38:32.797Z,15.73
2022-12-04T19:41:10.113Z,13.32
2022-12-04T19:43:42.068Z,16.58
2022-12-04T19:46:11.473Z,16.75
2022-12-04T19:48:38.666Z,16.75
2022-12-04T19:51:09.009Z,14.75
2022-12-04T19:53:40.717Z,15.93
2022-12-04T19:56:10.778Z,15.50
2022-12-04T19:58:38.144Z,16.45
2022-12-04T20:01:06.809Z,16.52
2022-12-04T20:03:34.953Z,16.67
2022-12-04T20:06:06.844Z,16.90
2022-12-04T20:08:34.597Z,16.33
2022-12-04T20:11:06.207Z,16.73
2022-12-04T20:13:35.960Z,17.20
2022-12-04T20:16:04.007Z,16.92
2022-12-04T20:18:31.197Z,17.30
2022-12-04T20:20:59.323Z,17.00
2022-12-04T20:23:26.601Z,18.08
2022-12-04T20:25:53.901Z,18.20
2022-12-04T20:28:21.553Z,18.10
2022-12-04T20:30:49.879Z,18.90
2022-12-04T20:33:17.114Z,19.63
2022-12-04T20:35:43.813Z,18.92
2022-12-04T20:38:10.643Z,20.23
2022-12-04T20:40:37.523Z,19.92
2022-12-04T20:43:04.300Z,20.00
2022-12-04T20:45:31.307Z,20.02
2022-12-04T20:47:58.099Z,20.02
2022-12-04T20:50:25.515Z,20.00
2022-12-04T20:52:52.417Z,19.75
2022-12-04T20:55:19.189Z,19.45
2022-12-04T20:57:46.002Z,19.27
2022-12-04T21:00:13.244Z,19.88
2022-12-04T21:02:40.189Z,18.23
2022-12-04T21:05:07.851Z,20.17
2022-12-04T21:07:34.698Z,19.33
2022-12-04T21:10:02.193Z,20.08
2022-12-04T21:12:47.781Z,19.55
2022-12-04T21:15:33.283Z,19.30
2022-12-04T21:18:03.184Z,18.48
2022-12-04T21:20:30.056Z,18.83
2022-12-04T21:22:56.843Z,18.85
2022-12-04T21:25:25.233Z,19.33
2022-12-04T21:27:52.531Z,18.33
2022-12-04T21:30:19.446Z,19.98
2022-12-04T21:32:46.214Z,18.83
2022-12-04T21:35:13.112Z,19.27
2022-12-04T21:37:39.874Z,19.77
2022-12-04T21:40:07.359Z,19.23
2022-12-04T21:42:35.460Z,20.58
2022-12-04T21:45:05.888Z,19.17
2022-12-04T21:47:33.353Z,19.00
2022-12-04T21:50:03.573Z,19.90
2022-12-04T21:52:30.370Z,19.90
2022-12-04T21:54:57.723Z,20.45
2022-12-04T21:57:24.500Z,20.08
2022-12-04T21:59:52.311Z,21.10
2022-12-04T22:02:19.576Z,20.27
2022-12-04T22:04:46.449Z,20.33
2022-12-04T22:07:14.171Z,20.15
2022-12-04T22:09:41.007Z,19.02
2022-12-04T22:12:26.812Z,20.08
2022-12-04T22:14:54.698Z,19.27
2022-12-04T22:17:21.409Z,19.98
2022-12-04T22:19:48.170Z,20.73
2022-12-04T22:22:14.927Z,20.60
2022-12-04T22:24:41.706Z,20.17
2022-12-04T22:27:14.726Z,19.80
2022-12-04T22:29:50.361Z,20.70
2022-12-04T22:32:18.381Z,20.50
2022-12-04T22:34:47.071Z,21.05
2022-12-04T22:37:13.830Z,19.67
2022-12-04T22:39:40.704Z,20.63
2022-12-04T22:42:07.471Z,20.70
2022-12-04T22:44:34.377Z,20.10
2022-12-04T22:47:01.220Z,20.73
2022-12-04T22:49:28.082Z,20.08
2022-12-04T22:51:54.835Z,20.45
2022-12-04T22:54:21.529Z,21.20
2022-12-04T22:56:48.542Z,20.85
2022-12-04T22:59:15.289Z,21.85
2022-12-04T23:01:42.040Z,20.65
2022-12-04T23:04:09.846Z,21.75
2022-12-04T23:06:36.601Z,20.42
2022-12-04T23:09:11.322Z,20.48
2022-12-04T23:11:39.258Z,21.00
2022-12-04T23:14:07.874Z,19.52
2022-12-04T23:16:37.331Z,20.13
2022-12-04T23:19:05.470Z,19.73
2022-12-04T23:21:32.526Z,19.83
2022-12-04T23:23:59.413Z,19.67
2022-12-04T23:26:38.296Z,19.25
2022-12-04T23:29:23.237Z,19.50
2022-12-04T23:31:51.164Z,19.10
2022-12-04T23:34:18.006Z,19.42
2022-12-04T23:36:44.720Z,18.60
2022-12-04T23:39:11.559Z,19.25
2022-12-04T23:41:38.251Z,19.77
2022-12-04T23:44:05.067Z,18.95
2022-12-04T23:46:32.760Z,19.73
2022-12-04T23:49:00.699Z,18.55
2022-12-04T23:51:28.233Z,19.27
2022-12-04T23:53:55.210Z,19.40
2022-12-04T23:56:25.031Z,18.98
2022-12-04T23:58:53.520Z,18.58
